sensor_id;sensor_type;location;lat;lon;timestamp;pressure;altitude;pressure_sealevel;temperature;humidity
22440;BME280;11387;51.612;7.210;2022-09-02T00:01:40;100947.97;;;15.12;51.31
22440;BME280;11387;51.612;7.210;2022-09-02T00:04:12;100945.03;;;15.09;51.28
22440;BME280;11387;51.612;7.210;2022-09-02T00:06:42;100941.97;;;15.10;51.31
22440;BME280;11387;51.612;7.210;2022-09-02T00:09:14;100934.47;;;15.02;51.41
22440;BME280;11387;51.612;7.210;2022-09-02T00:11:45;100941.31;;;15.05;51.30
22440;BME280;11387;51.612;7.210;2022-09-02T00:14:17;100944.06;;;15.05;51.35
22440;BME280;11387;51.612;7.210;2022-09-02T00:16:46;100937.06;;;14.99;51.36
22440;BME280;11387;51.612;7.210;2022-09-02T00:19:22;100940.81;;;14.94;51.61
22440;BME280;11387;51.612;7.210;2022-09-02T00:21:53;100928.16;;;14.93;51.65
22440;BME280;11387;51.612;7.210;2022-09-02T00:24:22;100922.78;;;14.88;51.75
22440;BME280;11387;51.612;7.210;2022-09-02T00:26:51;100925.06;;;14.86;51.66
22440;BME280;11387;51.612;7.210;2022-09-02T00:29:23;100916.31;;;14.84;51.81
22440;BME280;11387;51.612;7.210;2022-09-02T00:31:54;100926.16;;;14.76;51.97
22440;BME280;11387;51.612;7.210;2022-09-02T00:34:25;100923.38;;;14.68;52.22
22440;BME280;11387;51.612;7.210;2022-09-02T00:37:18;100908.47;;;14.69;52.01
22440;BME280;11387;51.612;7.210;2022-09-02T00:40:37;100916.09;;;14.63;52.32
22440;BME280;11387;51.612;7.210;2022-09-02T00:47:02;100922.69;;;14.54;52.55
22440;BME280;11387;51.612;7.210;2022-09-02T00:49:53;100918.63;;;14.51;52.58
22440;BME280;11387;51.612;7.210;2022-09-02T00:52:49;100919.94;;;14.54;52.77
22440;BME280;11387;51.612;7.210;2022-09-02T00:55:21;100916.31;;;14.44;52.80
22440;BME280;11387;51.612;7.210;2022-09-02T00:57:54;100914.19;;;14.41;53.16
22440;BME280;11387;51.612;7.210;2022-09-02T01:00:28;100909.44;;;14.33;53.03
22440;BME280;11387;51.612;7.210;2022-09-02T01:03:09;100910.56;;;14.32;53.26
22440;BME280;11387;51.612;7.210;2022-09-02T01:05:42;100909.09;;;14.26;53.42
22440;BME280;11387;51.612;7.210;2022-09-02T01:08:12;100907.91;;;14.19;53.73
22440;BME280;11387;51.612;7.210;2022-09-02T01:10:43;100910.16;;;14.16;53.45
22440;BME280;11387;51.612;7.210;2022-09-02T01:13:17;100904.78;;;14.11;53.79
22440;BME280;11387;51.612;7.210;2022-09-02T01:15:48;100908.34;;;14.12;54.06
22440;BME280;11387;51.612;7.210;2022-09-02T01:18:20;100901.38;;;14.06;54.07
22440;BME280;11387;51.612;7.210;2022-09-02T01:20:52;100906.06;;;14.05;54.22
22440;BME280;11387;51.612;7.210;2022-09-02T01:23:22;100907.34;;;14.08;54.17
22440;BME280;11387;51.612;7.210;2022-09-02T01:25:51;100902.00;;;14.03;54.55
22440;BME280;11387;51.612;7.210;2022-09-02T01:28:19;100903.78;;;14.07;53.98
22440;BME280;11387;51.612;7.210;2022-09-02T01:30:53;100901.19;;;14.02;54.06
22440;BME280;11387;51.612;7.210;2022-09-02T01:33:22;100903.75;;;13.99;53.81
22440;BME280;11387;51.612;7.210;2022-09-02T01:35:52;100901.84;;;14.08;53.89
22440;BME280;11387;51.612;7.210;2022-09-02T01:38:23;100897.47;;;14.07;53.87
22440;BME280;11387;51.612;7.210;2022-09-02T01:40:51;100891.00;;;14.03;54.10
22440;BME280;11387;51.612;7.210;2022-09-02T01:43:22;100898.13;;;14.04;53.96
22440;BME280;11387;51.612;7.210;2022-09-02T01:45:53;100891.81;;;14.03;53.86
22440;BME280;11387;51.612;7.210;2022-09-02T01:48:22;100887.13;;;14.04;53.91
22440;BME280;11387;51.612;7.210;2022-09-02T01:50:53;100892.47;;;14.09;53.63
22440;BME280;11387;51.612;7.210;2022-09-02T01:53:23;100889.91;;;14.12;53.32
22440;BME280;11387;51.612;7.210;2022-09-02T01:55:52;100895.59;;;14.16;53.18
22440;BME280;11387;51.612;7.210;2022-09-02T01:58:20;100886.66;;;14.10;53.39
22440;BME280;11387;51.612;7.210;2022-09-02T02:00:49;100884.22;;;14.09;53.30
22440;BME280;11387;51.612;7.210;2022-09-02T02:03:18;100890.22;;;14.11;53.16
22440;BME280;11387;51.612;7.210;2022-09-02T02:05:47;100885.81;;;14.01;53.33
22440;BME280;11387;51.612;7.210;2022-09-02T02:08:16;100887.38;;;13.94;53.63
22440;BME280;11387;51.612;7.210;2022-09-02T02:10:46;100883.75;;;13.85;53.69
22440;BME280;11387;51.612;7.210;2022-09-02T02:13:14;100889.88;;;13.81;54.21
22440;BME280;11387;51.612;7.210;2022-09-02T02:15:43;100885.38;;;13.86;54.11
22440;BME280;11387;51.612;7.210;2022-09-02T02:18:12;100884.25;;;13.87;53.70
22440;BME280;11387;51.612;7.210;2022-09-02T02:20:40;100884.38;;;13.81;53.90
22440;BME280;11387;51.612;7.210;2022-09-02T02:23:11;100885.50;;;13.80;54.25
22440;BME280;11387;51.612;7.210;2022-09-02T02:25:40;100883.38;;;13.77;54.01
22440;BME280;11387;51.612;7.210;2022-09-02T02:28:10;100884.38;;;13.81;53.96
22440;BME280;11387;51.612;7.210;2022-09-02T02:30:38;100881.75;;;13.76;53.95
22440;BME280;11387;51.612;7.210;2022-09-02T02:33:07;100889.38;;;13.79;53.99
22440;BME280;11387;51.612;7.210;2022-09-02T02:35:35;100880.94;;;13.76;54.20
22440;BME280;11387;51.612;7.210;2022-09-02T02:38:04;100871.75;;;13.80;54.01
22440;BME280;11387;51.612;7.210;2022-09-02T02:40:33;100876.25;;;13.76;54.23
22440;BME280;11387;51.612;7.210;2022-09-02T02:43:02;100874.47;;;13.72;53.80
22440;BME280;11387;51.612;7.210;2022-09-02T02:45:32;100871.41;;;13.73;53.96
22440;BME280;11387;51.612;7.210;2022-09-02T02:48:01;100876.91;;;13.73;53.95
22440;BME280;11387;51.612;7.210;2022-09-02T02:50:30;100878.28;;;13.62;54.42
22440;BME280;11387;51.612;7.210;2022-09-02T02:53:00;100882.66;;;13.63;54.38
22440;BME280;11387;51.612;7.210;2022-09-02T02:55:29;100890.22;;;13.58;54.30
22440;BME280;11387;51.612;7.210;2022-09-02T02:57:58;100889.50;;;13.52;54.67
22440;BME280;11387;51.612;7.210;2022-09-02T03:00:29;100879.63;;;13.51;54.60
22440;BME280;11387;51.612;7.210;2022-09-02T03:03:05;100878.00;;;13.50;54.89
22440;BME280;11387;51.612;7.210;2022-09-02T03:05:35;100881.53;;;13.42;55.10
22440;BME280;11387;51.612;7.210;2022-09-02T03:08:04;100879.91;;;13.41;54.99
22440;BME280;11387;51.612;7.210;2022-09-02T03:10:34;100874.91;;;13.43;55.05
22440;BME280;11387;51.612;7.210;2022-09-02T03:13:03;100879.72;;;13.37;55.20
22440;BME280;11387;51.612;7.210;2022-09-02T03:15:34;100869.53;;;13.38;55.39
22440;BME280;11387;51.612;7.210;2022-09-02T03:18:05;100873.41;;;13.37;55.39
22440;BME280;11387;51.612;7.210;2022-09-02T03:20:34;100866.28;;;13.36;55.09
22440;BME280;11387;51.612;7.210;2022-09-02T03:23:03;100865.66;;;13.39;55.42
22440;BME280;11387;51.612;7.210;2022-09-02T03:25:32;100869.53;;;13.38;55.23
22440;BME280;11387;51.612;7.210;2022-09-02T03:28:06;100862.03;;;13.30;55.49
22440;BME280;11387;51.612;7.210;2022-09-02T03:30:35;100872.41;;;13.33;56.21
22440;BME280;11387;51.612;7.210;2022-09-02T03:33:05;100861.41;;;13.33;55.57
22440;BME280;11387;51.612;7.210;2022-09-02T03:35:37;100864.47;;;13.31;55.53
22440;BME280;11387;51.612;7.210;2022-09-02T03:38:07;100862.84;;;13.30;55.20
22440;BME280;11387;51.612;7.210;2022-09-02T03:40:36;100865.88;;;13.29;55.48
22440;BME280;11387;51.612;7.210;2022-09-02T03:43:05;100863.66;;;13.31;55.71
22440;BME280;11387;51.612;7.210;2022-09-02T03:45:33;100862.94;;;13.25;55.95
22440;BME280;11387;51.612;7.210;2022-09-02T03:48:01;100854.72;;;13.25;55.62
22440;BME280;11387;51.612;7.210;2022-09-02T03:50:34;100862.13;;;13.25;55.52
22440;BME280;11387;51.612;7.210;2022-09-02T03:53:04;100861.00;;;13.26;55.86
22440;BME280;11387;51.612;7.210;2022-09-02T03:55:35;100858.34;;;13.34;55.38
22440;BME280;11387;51.612;7.210;2022-09-02T03:58:03;100862.03;;;13.30;55.46
22440;BME280;11387;51.612;7.210;2022-09-02T04:00:34;100861.81;;;13.26;55.76
22440;BME280;11387;51.612;7.210;2022-09-02T04:03:05;100853.38;;;13.23;56.15
22440;BME280;11387;51.612;7.210;2022-09-02T04:05:35;100851.44;;;13.23;55.69
22440;BME280;11387;51.612;7.210;2022-09-02T04:08:03;100851.03;;;13.30;55.97
22440;BME280;11387;51.612;7.210;2022-09-02T04:10:32;100851.72;;;13.35;55.37
22440;BME280;11387;51.612;7.210;2022-09-02T04:13:00;100852.03;;;13.34;55.52
22440;BME280;11387;51.612;7.210;2022-09-02T04:15:28;100845.84;;;13.28;55.80
22440;BME280;11387;51.612;7.210;2022-09-02T04:17:57;100850.41;;;13.33;55.81
22440;BME280;11387;51.612;7.210;2022-09-02T04:20:25;100852.22;;;13.37;55.82
22440;BME280;11387;51.612;7.210;2022-09-02T04:22:55;100847.97;;;13.31;56.01
22440;BME280;11387;51.612;7.210;2022-09-02T04:25:24;100850.72;;;13.31;55.93
22440;BME280;11387;51.612;7.210;2022-09-02T04:27:54;100844.91;;;13.33;55.72
22440;BME280;11387;51.612;7.210;2022-09-02T04:30:22;100855.28;;;13.36;56.06
22440;BME280;11387;51.612;7.210;2022-09-02T04:32:51;100842.66;;;13.35;55.76
22440;BME280;11387;51.612;7.210;2022-09-02T04:35:20;100845.81;;;13.42;55.50
22440;BME280;11387;51.612;7.210;2022-09-02T04:37:49;100839.03;;;13.48;55.17
22440;BME280;11387;51.612;7.210;2022-09-02T04:40:19;100837.78;;;13.54;55.40
22440;BME280;11387;51.612;7.210;2022-09-02T04:42:47;100842.97;;;13.56;55.65
22440;BME280;11387;51.612;7.210;2022-09-02T04:45:21;100835.53;;;13.56;55.27
22440;BME280;11387;51.612;7.210;2022-09-02T04:47:55;100837.84;;;13.63;55.06
22440;BME280;11387;51.612;7.210;2022-09-02T04:50:38;100839.28;;;13.60;55.10
22440;BME280;11387;51.612;7.210;2022-09-02T04:53:35;100840.91;;;13.61;54.89
22440;BME280;11387;51.612;7.210;2022-09-02T04:56:08;100848.22;;;13.66;54.94
22440;BME280;11387;51.612;7.210;2022-09-02T04:58:38;100843.53;;;13.66;54.99
22440;BME280;11387;51.612;7.210;2022-09-02T05:01:07;100848.22;;;13.66;54.97
22440;BME280;11387;51.612;7.210;2022-09-02T05:03:36;100850.03;;;13.70;55.00
22440;BME280;11387;51.612;7.210;2022-09-02T05:06:07;100844.88;;;13.77;54.68
22440;BME280;11387;51.612;7.210;2022-09-02T05:08:37;100846.06;;;13.85;54.42
22440;BME280;11387;51.612;7.210;2022-09-02T05:11:12;100850.63;;;13.90;54.68
22440;BME280;11387;51.612;7.210;2022-09-02T05:13:41;100856.63;;;13.92;54.67
22440;BME280;11387;51.612;7.210;2022-09-02T05:16:13;100852.13;;;13.96;54.67
22440;BME280;11387;51.612;7.210;2022-09-02T05:18:42;100855.06;;;14.08;54.21
22440;BME280;11387;51.612;7.210;2022-09-02T05:21:11;100835.38;;;14.14;53.66
22440;BME280;11387;51.612;7.210;2022-09-02T05:23:40;100847.06;;;14.20;53.68
22440;BME280;11387;51.612;7.210;2022-09-02T05:26:11;100836.09;;;14.29;53.64
22440;BME280;11387;51.612;7.210;2022-09-02T05:28:41;100846.78;;;14.30;53.51
22440;BME280;11387;51.612;7.210;2022-09-02T05:31:17;100847.09;;;14.37;53.34
22440;BME280;11387;51.612;7.210;2022-09-02T05:33:46;100850.22;;;14.36;53.43
22440;BME280;11387;51.612;7.210;2022-09-02T05:36:17;100847.09;;;14.37;53.69
22440;BME280;11387;51.612;7.210;2022-09-02T05:38:47;100846.03;;;14.47;53.53
22440;BME280;11387;51.612;7.210;2022-09-02T05:41:21;100850.28;;;14.53;53.09
22440;BME280;11387;51.612;7.210;2022-09-02T05:43:52;100858.53;;;14.53;53.30
22440;BME280;11387;51.612;7.210;2022-09-02T05:46:23;100849.19;;;14.63;53.28
22440;BME280;11387;51.612;7.210;2022-09-02T05:48:53;100848.88;;;14.64;53.07
22440;BME280;11387;51.612;7.210;2022-09-02T05:51:41;100847.41;;;14.67;53.07
22440;BME280;11387;51.612;7.210;2022-09-02T05:54:13;100846.75;;;14.70;53.00
22440;BME280;11387;51.612;7.210;2022-09-02T05:56:45;100851.63;;;14.81;52.65
22440;BME280;11387;51.612;7.210;2022-09-02T05:59:15;100841.44;;;14.91;52.45
22440;BME280;11387;51.612;7.210;2022-09-02T06:01:45;100840.31;;;15.00;52.28
22440;BME280;11387;51.612;7.210;2022-09-02T06:04:14;100834.50;;;15.10;52.20
22440;BME280;11387;51.612;7.210;2022-09-02T06:06:42;100844.56;;;15.24;51.78
22440;BME280;11387;51.612;7.210;2022-09-02T06:09:15;100842.63;;;15.24;51.91
22440;BME280;11387;51.612;7.210;2022-09-02T06:11:46;100836.78;;;15.26;52.09
22440;BME280;11387;51.612;7.210;2022-09-02T06:14:16;100841.47;;;15.25;52.17
22440;BME280;11387;51.612;7.210;2022-09-02T06:16:45;100839.19;;;15.36;51.86
22440;BME280;11387;51.612;7.210;2022-09-02T06:19:14;100840.66;;;15.42;51.93
22440;BME280;11387;51.612;7.210;2022-09-02T06:21:47;100844.69;;;15.53;51.48
22440;BME280;11387;51.612;7.210;2022-09-02T06:24:16;100840.81;;;15.45;51.88
22440;BME280;11387;51.612;7.210;2022-09-02T06:26:46;100846.00;;;15.47;52.01
22440;BME280;11387;51.612;7.210;2022-09-02T06:29:15;100849.06;;;15.63;51.46
22440;BME280;11387;51.612;7.210;2022-09-02T06:31:45;100845.34;;;15.67;51.36
22440;BME280;11387;51.612;7.210;2022-09-02T06:34:15;100844.09;;;15.56;51.72
22440;BME280;11387;51.612;7.210;2022-09-02T06:36:46;100839.88;;;15.59;51.89
22440;BME280;11387;51.612;7.210;2022-09-02T06:39:20;100844.84;;;15.65;51.95
22440;BME280;11387;51.612;7.210;2022-09-02T06:41:51;100836.75;;;15.69;51.83
22440;BME280;11387;51.612;7.210;2022-09-02T06:44:19;100842.41;;;15.81;51.54
22440;BME280;11387;51.612;7.210;2022-09-02T06:46:52;100842.66;;;15.97;51.04
22440;BME280;11387;51.612;7.210;2022-09-02T06:49:22;100840.09;;;15.92;51.54
22440;BME280;11387;51.612;7.210;2022-09-02T06:51:52;100833.41;;;16.01;51.01
22440;BME280;11387;51.612;7.210;2022-09-02T06:54:23;100844.94;;;15.95;51.42
22440;BME280;11387;51.612;7.210;2022-09-02T06:56:53;100839.16;;;15.88;51.75
22440;BME280;11387;51.612;7.210;2022-09-02T06:59:21;100842.97;;;16.04;51.68
22440;BME280;11387;51.612;7.210;2022-09-02T07:01:50;100837.88;;;16.23;51.17
22440;BME280;11387;51.612;7.210;2022-09-02T07:04:19;100838.69;;;16.53;50.69
22440;BME280;11387;51.612;7.210;2022-09-02T07:07:07;100845.25;;;16.78;49.47
22440;BME280;11387;51.612;7.210;2022-09-02T07:09:38;100839.47;;;16.92;49.20
22440;BME280;11387;51.612;7.210;2022-09-02T07:12:09;100838.75;;;17.03;49.25
22440;BME280;11387;51.612;7.210;2022-09-02T07:14:40;100835.97;;;17.03;49.37
22440;BME280;11387;51.612;7.210;2022-09-02T07:17:13;100831.25;;;17.25;48.89
22440;BME280;11387;51.612;7.210;2022-09-02T07:19:44;100837.31;;;17.18;48.86
22440;BME280;11387;51.612;7.210;2022-09-02T07:22:12;100844.69;;;17.47;48.62
22440;BME280;11387;51.612;7.210;2022-09-02T07:24:45;100838.38;;;17.67;48.34
22440;BME280;11387;51.612;7.210;2022-09-02T07:27:16;100842.38;;;18.03;47.53
22440;BME280;11387;51.612;7.210;2022-09-02T07:29:46;100830.47;;;17.90;47.24
22440;BME280;11387;51.612;7.210;2022-09-02T07:32:15;100829.19;;;17.88;47.43
22440;BME280;11387;51.612;7.210;2022-09-02T07:34:44;100826.59;;;18.15;47.06
22440;BME280;11387;51.612;7.210;2022-09-02T07:37:21;100838.03;;;18.26;46.39
22440;BME280;11387;51.612;7.210;2022-09-02T07:39:50;100837.53;;;18.12;46.73
22440;BME280;11387;51.612;7.210;2022-09-02T07:42:20;100833.84;;;18.20;46.95
22440;BME280;11387;51.612;7.210;2022-09-02T07:44:49;100839.88;;;18.34;46.31
22440;BME280;11387;51.612;7.210;2022-09-02T07:47:17;100835.59;;;18.49;46.38
22440;BME280;11387;51.612;7.210;2022-09-02T07:49:46;100839.53;;;18.48;46.13
22440;BME280;11387;51.612;7.210;2022-09-02T07:52:37;100834.56;;;18.78;45.42
22440;BME280;11387;51.612;7.210;2022-09-02T07:55:08;100838.59;;;18.80;45.62
22440;BME280;11387;51.612;7.210;2022-09-02T07:57:42;100826.72;;;19.20;44.78
22440;BME280;11387;51.612;7.210;2022-09-02T08:00:12;100828.66;;;20.19;43.61
22440;BME280;11387;51.612;7.210;2022-09-02T08:02:40;100824.81;;;22.32;38.38
22440;BME280;11387;51.612;7.210;2022-09-02T08:05:10;100815.28;;;23.12;36.77
22440;BME280;11387;51.612;7.210;2022-09-02T08:07:39;100811.63;;;24.16;34.60
22440;BME280;11387;51.612;7.210;2022-09-02T08:10:09;100811.94;;;23.63;34.89
22440;BME280;11387;51.612;7.210;2022-09-02T08:12:42;100814.38;;;24.57;34.16
22440;BME280;11387;51.612;7.210;2022-09-02T08:15:12;100817.38;;;25.65;31.56
22440;BME280;11387;51.612;7.210;2022-09-02T08:17:42;100818.53;;;24.80;33.19
22440;BME280;11387;51.612;7.210;2022-09-02T08:20:13;100823.59;;;25.23;33.07
22440;BME280;11387;51.612;7.210;2022-09-02T08:22:44;100819.00;;;22.94;36.40
22440;BME280;11387;51.612;7.210;2022-09-02T08:25:27;100820.91;;;22.60;37.02
22440;BME280;11387;51.612;7.210;2022-09-02T08:27:57;100823.50;;;22.23;38.24
22440;BME280;11387;51.612;7.210;2022-09-02T08:30:25;100824.81;;;21.87;39.01
22440;BME280;11387;51.612;7.210;2022-09-02T08:32:53;100824.50;;;21.49;39.95
22440;BME280;11387;51.612;7.210;2022-09-02T08:35:22;100825.63;;;21.26;40.29
22440;BME280;11387;51.612;7.210;2022-09-02T08:37:50;100822.44;;;21.46;40.59
22440;BME280;11387;51.612;7.210;2022-09-02T08:40:20;100824.31;;;21.81;39.71
22440;BME280;11387;51.612;7.210;2022-09-02T08:42:51;100817.47;;;21.98;39.12
22440;BME280;11387;51.612;7.210;2022-09-02T08:45:31;100820.25;;;22.43;38.86
22440;BME280;11387;51.612;7.210;2022-09-02T08:48:05;100813.41;;;23.20;37.51
22440;BME280;11387;51.612;7.210;2022-09-02T08:50:38;100821.03;;;23.94;35.96
22440;BME280;11387;51.612;7.210;2022-09-02T08:53:13;100815.66;;;23.74;35.84
22440;BME280;11387;51.612;7.210;2022-09-02T08:58:40;100813.13;;;24.50;34.57
22440;BME280;11387;51.612;7.210;2022-09-02T09:01:17;100807.69;;;27.92;29.39
22440;BME280;11387;51.612;7.210;2022-09-02T09:04:09;100798.50;;;30.53;25.71
22440;BME280;11387;51.612;7.210;2022-09-02T09:06:47;100806.31;;;29.03;27.59
22440;BME280;11387;51.612;7.210;2022-09-02T09:09:26;100805.34;;;26.96;30.32
22440;BME280;11387;51.612;7.210;2022-09-02T09:12:07;100800.84;;;25.42;33.30
22440;BME280;11387;51.612;7.210;2022-09-02T09:14:43;100809.31;;;25.60;32.77
22440;BME280;11387;51.612;7.210;2022-09-02T09:17:20;100788.84;;;25.45;33.02
22440;BME280;11387;51.612;7.210;2022-09-02T09:19:53;100796.59;;;26.05;32.29
22440;BME280;11387;51.612;7.210;2022-09-02T09:22:28;100791.59;;;27.23;30.43
22440;BME280;11387;51.612;7.210;2022-09-02T09:24:58;100789.91;;;27.43;30.23
22440;BME280;11387;51.612;7.210;2022-09-02T09:27:27;100793.38;;;26.06;31.70
22440;BME280;11387;51.612;7.210;2022-09-02T09:29:55;100788.56;;;25.82;32.64
22440;BME280;11387;51.612;7.210;2022-09-02T09:32:29;100786.81;;;25.38;32.84
22440;BME280;11387;51.612;7.210;2022-09-02T09:35:01;100783.13;;;24.47;34.95
22440;BME280;11387;51.612;7.210;2022-09-02T09:37:35;100786.75;;;24.48;34.64
22440;BME280;11387;51.612;7.210;2022-09-02T09:40:24;100786.94;;;23.77;35.55
22440;BME280;11387;51.612;7.210;2022-09-02T09:42:56;100775.75;;;23.40;36.72
22440;BME280;11387;51.612;7.210;2022-09-02T09:45:28;100782.19;;;22.81;37.70
22440;BME280;11387;51.612;7.210;2022-09-02T09:48:19;100780.88;;;22.75;38.12
22440;BME280;11387;51.612;7.210;2022-09-02T09:51:09;100779.06;;;22.86;37.79
22440;BME280;11387;51.612;7.210;2022-09-02T09:53:38;100768.91;;;23.71;36.68
22440;BME280;11387;51.612;7.210;2022-09-02T09:56:32;100768.13;;;23.71;36.28
22440;BME280;11387;51.612;7.210;2022-09-02T09:59:07;100761.13;;;23.95;35.84
22440;BME280;11387;51.612;7.210;2022-09-02T10:01:36;100762.47;;;24.08;35.83
22440;BME280;11387;51.612;7.210;2022-09-02T10:04:08;100771.50;;;24.38;35.30
22440;BME280;11387;51.612;7.210;2022-09-02T10:06:58;100767.63;;;26.93;30.82
22440;BME280;11387;51.612;7.210;2022-09-02T10:09:32;100756.13;;;26.27;31.93
22440;BME280;11387;51.612;7.210;2022-09-02T10:12:03;100756.13;;;26.13;32.65
22440;BME280;11387;51.612;7.210;2022-09-02T10:14:34;100764.13;;;26.04;32.73
22440;BME280;11387;51.612;7.210;2022-09-02T10:17:11;100753.31;;;26.09;32.30
22440;BME280;11387;51.612;7.210;2022-09-02T10:19:51;100755.72;;;26.50;32.07
22440;BME280;11387;51.612;7.210;2022-09-02T10:25:50;100753.03;;;27.30;30.47
22440;BME280;11387;51.612;7.210;2022-09-02T10:28:29;100752.00;;;27.76;29.47
22440;BME280;11387;51.612;7.210;2022-09-02T10:31:07;100744.72;;;30.36;26.25
22440;BME280;11387;51.612;7.210;2022-09-02T10:33:51;100743.03;;;31.22;25.48
22440;BME280;11387;51.612;7.210;2022-09-02T10:36:31;100735.34;;;31.58;24.96
22440;BME280;11387;51.612;7.210;2022-09-02T10:39:04;100734.94;;;31.24;25.27
22440;BME280;11387;51.612;7.210;2022-09-02T10:41:40;100737.66;;;32.44;23.56
22440;BME280;11387;51.612;7.210;2022-09-02T10:44:25;100733.28;;;32.27;23.43
22440;BME280;11387;51.612;7.210;2022-09-02T10:46:59;100731.38;;;30.17;26.14
22440;BME280;11387;51.612;7.210;2022-09-02T10:49:41;100720.25;;;31.48;25.22
22440;BME280;11387;51.612;7.210;2022-09-02T10:52:31;100724.69;;;31.30;25.02
22440;BME280;11387;51.612;7.210;2022-09-02T10:55:12;100720.44;;;31.22;24.74
22440;BME280;11387;51.612;7.210;2022-09-02T10:57:48;100727.72;;;30.83;25.22
22440;BME280;11387;51.612;7.210;2022-09-02T11:00:20;100716.94;;;31.34;24.75
22440;BME280;11387;51.612;7.210;2022-09-02T11:02:52;100715.53;;;31.78;24.49
22440;BME280;11387;51.612;7.210;2022-09-02T11:05:24;100719.47;;;31.97;24.04
22440;BME280;11387;51.612;7.210;2022-09-02T11:08:02;100716.53;;;32.62;23.68
22440;BME280;11387;51.612;7.210;2022-09-02T11:10:36;100724.06;;;35.33;20.23
22440;BME280;11387;51.612;7.210;2022-09-02T11:13:08;100720.25;;;33.80;21.09
22440;BME280;11387;51.612;7.210;2022-09-02T11:15:44;100703.03;;;32.53;22.50
22440;BME280;11387;51.612;7.210;2022-09-02T11:18:20;100709.59;;;30.61;24.61
22440;BME280;11387;51.612;7.210;2022-09-02T11:20:58;100697.50;;;29.94;25.37
22440;BME280;11387;51.612;7.210;2022-09-02T11:23:35;100694.72;;;29.90;26.60
22440;BME280;11387;51.612;7.210;2022-09-02T11:26:10;100691.44;;;29.45;25.79
22440;BME280;11387;51.612;7.210;2022-09-02T11:28:47;100687.03;;;29.13;26.06
22440;BME280;11387;51.612;7.210;2022-09-02T11:31:25;100693.97;;;29.05;26.51
22440;BME280;11387;51.612;7.210;2022-09-02T11:34:08;100687.72;;;29.75;25.13
22440;BME280;11387;51.612;7.210;2022-09-02T11:36:42;100687.13;;;30.54;24.24
22440;BME280;11387;51.612;7.210;2022-09-02T11:39:17;100682.13;;;29.71;25.36
22440;BME280;11387;51.612;7.210;2022-09-02T11:42:13;100681.41;;;28.45;26.83
22440;BME280;11387;51.612;7.210;2022-09-02T11:45:14;100678.03;;;28.61;26.19
22440;BME280;11387;51.612;7.210;2022-09-02T11:48:05;100679.03;;;32.29;21.09
22440;BME280;11387;51.612;7.210;2022-09-02T11:50:57;100673.00;;;31.29;22.65
22440;BME280;11387;51.612;7.210;2022-09-02T11:53:34;100673.31;;;29.93;24.34
22440;BME280;11387;51.612;7.210;2022-09-02T11:56:12;100672.72;;;30.05;24.09
22440;BME280;11387;51.612;7.210;2022-09-02T11:58:44;100664.66;;;34.61;18.65
22440;BME280;11387;51.612;7.210;2022-09-02T12:01:28;100672.13;;;33.26;19.64
22440;BME280;11387;51.612;7.210;2022-09-02T12:04:01;100653.31;;;31.91;21.59
22440;BME280;11387;51.612;7.210;2022-09-02T12:07:23;100654.56;;;29.82;24.01
22440;BME280;11387;51.612;7.210;2022-09-02T12:09:58;100652.47;;;29.87;24.09
22440;BME280;11387;51.612;7.210;2022-09-02T12:13:04;100648.31;;;32.11;21.80
22440;BME280;11387;51.612;7.210;2022-09-02T12:15:45;100643.38;;;32.15;20.81
22440;BME280;11387;51.612;7.210;2022-09-02T12:18:27;100649.03;;;30.62;21.22
22440;BME280;11387;51.612;7.210;2022-09-02T12:21:07;100633.97;;;31.57;20.53
22440;BME280;11387;51.612;7.210;2022-09-02T12:27:06;100633.88;;;28.55;23.14
22440;BME280;11387;51.612;7.210;2022-09-02T12:29:36;100630.38;;;27.09;24.96
22440;BME280;11387;51.612;7.210;2022-09-02T12:32:07;100639.16;;;27.70;24.44
22440;BME280;11387;51.612;7.210;2022-09-02T12:34:52;100629.81;;;28.90;23.46
22440;BME280;11387;51.612;7.210;2022-09-02T12:37:54;100636.38;;;33.03;20.29
22440;BME280;11387;51.612;7.210;2022-09-02T12:40:33;100629.22;;;35.86;17.11
22440;BME280;11387;51.612;7.210;2022-09-02T12:43:16;100632.09;;;35.36;17.27
22440;BME280;11387;51.612;7.210;2022-09-02T12:45:53;100626.09;;;31.97;20.26
22440;BME280;11387;51.612;7.210;2022-09-02T12:48:33;100612.47;;;31.92;19.99
22440;BME280;11387;51.612;7.210;2022-09-02T12:51:05;100618.69;;;33.97;17.92
22440;BME280;11387;51.612;7.210;2022-09-02T12:53:37;100619.56;;;35.83;15.77
22440;BME280;11387;51.612;7.210;2022-09-02T12:56:18;100605.16;;;36.14;15.83
22440;BME280;11387;51.612;7.210;2022-09-02T12:58:49;100610.34;;;35.21;16.62
22440;BME280;11387;51.612;7.210;2022-09-02T13:01:28;100619.22;;;31.33;19.63
22440;BME280;11387;51.612;7.210;2022-09-02T13:04:18;100599.94;;;29.23;21.60
22440;BME280;11387;51.612;7.210;2022-09-02T13:07:11;100602.41;;;31.91;19.42
22440;BME280;11387;51.612;7.210;2022-09-02T13:10:17;100598.69;;;34.35;16.99
22440;BME280;11387;51.612;7.210;2022-09-02T13:13:06;100595.38;;;31.34;18.78
22440;BME280;11387;51.612;7.210;2022-09-02T13:18:46;100600.78;;;34.43;16.38
22440;BME280;11387;51.612;7.210;2022-09-02T13:33:36;100579.75;;;37.46;13.82
22440;BME280;11387;51.612;7.210;2022-09-02T13:36:09;100571.81;;;38.27;13.10
22440;BME280;11387;51.612;7.210;2022-09-02T13:38:37;100589.25;;;35.31;15.88
22440;BME280;11387;51.612;7.210;2022-09-02T13:41:06;100576.56;;;31.89;18.87
22440;BME280;11387;51.612;7.210;2022-09-02T13:43:35;100572.41;;;30.24;20.09
22440;BME280;11387;51.612;7.210;2022-09-02T13:46:04;100558.28;;;28.53;22.45
22440;BME280;11387;51.612;7.210;2022-09-02T13:48:33;100571.97;;;30.81;20.54
22440;BME280;11387;51.612;7.210;2022-09-02T13:51:11;100555.00;;;32.91;18.58
22440;BME280;11387;51.612;7.210;2022-09-02T13:53:43;100560.03;;;32.58;18.15